Latest Flight | Flight Log | Data Trends | Login | Join FlightData.com!
Date Range From To
Export:
Flight Log - N811JT - Click on row to view flight. Click on header to sort.
Date Origin Dest Depart Arrive Hobbs Flight Time Flight Distance Fuel Fuel/hr Fuel/nm Altitude Gnd Speed
Thu, Jun 14, 2012 KBFL 5L1 16:39 17:39 0.18 hrs 0.07 hrs 7.70 nm 2.79 gal 15.77 gal/hr 0.36 gal/nm 3622 msl 109 kts
Thu, Jun 14, 2012 KVNY KBFL 15:11 15:57 0.74 hrs 0.51 hrs 83.40 nm 11.66 gal 15.68 gal/hr 0.14 gal/nm 8512 msl 159 kts
Thu, Jun 14, 2012 KSMO KVNY 13:26 13:48 0.36 hrs 0.14 hrs 18.17 nm 4.80 gal 13.40 gal/hr 0.26 gal/nm 2576 msl 135 kts
Thu, Jun 14, 2012     10:44 10:45 0.02 hrs 0.00 hrs 0.00 nm 0.00 gal 0.00 gal/hr 0.00 gal/nm 0 msl 0 kts
Thu, Jun 14, 2012 KSMO KSMO 10:35 10:39 0.06 hrs 0.00 hrs 0.00 nm 0.00 gal 0.00 gal/hr 0.00 gal/nm 0 msl 0 kts
Thu, Jun 14, 2012 KSMO KSMO 09:43 09:50 0.13 hrs 0.00 hrs 0.00 nm 0.00 gal 0.00 gal/hr 0.00 gal/nm 0 msl 0 kts
Thu, Jun 14, 2012 KSMO KSMO 09:01 09:16 0.26 hrs 0.00 hrs 0.00 nm 2.22 gal 8.61 gal/hr 0.00 gal/nm 0 msl 0 kts
Thu, Jun 14, 2012 KSMO KSMO 08:35 08:54 0.31 hrs 0.00 hrs 0.00 nm 1.92 gal 6.26 gal/hr 0.00 gal/nm 0 msl 0 kts
Wed, Jun 13, 2012 KSMO KSMO 19:00 19:44 0.73 hrs 0.29 hrs 37.63 nm 7.39 gal 10.17 gal/hr 0.20 gal/nm 2358 msl 128 kts
Wed, Jun 13, 2012     18:53 18:53 0.01 hrs 0.00 hrs 0.00 nm 0.00 gal 0.00 gal/hr 0.00 gal/nm 0 msl 0 kts
Wed, Jun 13, 2012 KSMO KSMO 10:43 10:49 0.1 hrs 0.00 hrs 0.00 nm 0.00 gal 0.00 gal/hr 0.00 gal/nm 0 msl 0 kts
Wed, Jun 13, 2012 KSMO KSMO 10:38 10:42 0.06 hrs 0.00 hrs 0.00 nm 0.00 gal 0.00 gal/hr 0.00 gal/nm 0 msl 0 kts
Wed, Jun 13, 2012     10:30 10:31 0.02 hrs 0.00 hrs 0.00 nm 0.00 gal 0.00 gal/hr 0.00 gal/nm 0 msl 0 kts
Wed, Jun 13, 2012     10:03 10:04 0.02 hrs 0.00 hrs 0.00 nm 0.00 gal 0.00 gal/hr 0.00 gal/nm 0 msl 0 kts
Wed, Jun 13, 2012     09:57 09:57 0.01 hrs 0.00 hrs 0.00 nm 0.00 gal 0.00 gal/hr 0.00 gal/nm 0 msl 0 kts
Wed, Jun 13, 2012     09:43 09:44 0.01 hrs 0.00 hrs 0.00 nm 0.00 gal 0.00 gal/hr 0.00 gal/nm 0 msl 0 kts
Tue, Jun 12, 2012 KSMO KSMO 08:49 09:09 0.34 hrs 0.00 hrs 0.00 nm 2.94 gal 8.68 gal/hr 0.00 gal/nm 0 msl 0 kts
Mon, Jun 11, 2012 KSMO KSMO 15:47 15:55 0.14 hrs 0.00 hrs 0.00 nm 1.70 gal 12.42 gal/hr 0.00 gal/nm 0 msl 0 kts
Mon, Jun 11, 2012 KSMO KSMO 15:40 15:45 0.07 hrs 0.00 hrs 0.00 nm 0.91 gal 13.37 gal/hr 0.00 gal/nm 0 msl 0 kts
Mon, Jun 11, 2012 KSMO KSMO 15:20 15:37 0.28 hrs 0.00 hrs 0.00 nm 2.45 gal 8.80 gal/hr 0.00 gal/nm 0 msl 0 kts
Mon, Jun 11, 2012 KSMO KSMO 14:41 14:47 0.09 hrs 0.00 hrs 0.00 nm 0.84 gal 8.95 gal/hr 0.00 gal/nm 0 msl 0 kts
Mon, Jun 11, 2012 KSMO KSMO 14:27 14:36 0.15 hrs 0.00 hrs 0.00 nm 0.90 gal 6.23 gal/hr 0.00 gal/nm 0 msl 0 kts
Thu, Jun 7, 2012 KSMO KSMO 14:20 14:29 0.15 hrs 0.00 hrs 0.00 nm 1.63 gal 10.90 gal/hr 0.00 gal/nm 0 msl 0 kts
Thu, Jun 7, 2012 KSMO KSMO 14:04 14:14 0.17 hrs 0.00 hrs 0.00 nm 1.18 gal 7.02 gal/hr 0.00 gal/nm 0 msl 0 kts
Thu, Jun 7, 2012 KSMO KSMO 11:23 11:41 0.29 hrs 0.00 hrs 0.00 nm 2.61 gal 8.90 gal/hr 0.00 gal/nm 0 msl 0 kts
Wed, Jun 6, 2012 KSMO KSMO 15:19 15:35 0.27 hrs 0.00 hrs 0.00 nm 2.67 gal 9.77 gal/hr 0.00 gal/nm 0 msl 0 kts
Wed, Jun 6, 2012 KSMO KSMO 14:40 14:54 0.23 hrs 0.00 hrs 0.00 nm 2.17 gal 9.28 gal/hr 0.00 gal/nm 0 msl 0 kts
Wed, Jun 6, 2012 KSMO KSMO 14:10 14:30 0.33 hrs 0.00 hrs 0.00 nm 3.40 gal 10.19 gal/hr 0.00 gal/nm 0 msl 0 kts
Wed, Jun 6, 2012 KSMO KSMO 13:56 14:03 0.11 hrs 0.00 hrs 0.00 nm 1.29 gal 11.36 gal/hr 0.00 gal/nm 0 msl 0 kts
Wed, Jun 6, 2012 KSMO KSMO 13:43 13:53 0.17 hrs 0.00 hrs 0.00 nm 2.07 gal 12.16 gal/hr 0.00 gal/nm 0 msl 0 kts
Wed, Jun 6, 2012 KSMO KSMO 13:19 13:36 0.29 hrs 0.00 hrs 0.00 nm 2.24 gal 7.80 gal/hr 0.00 gal/nm 0 msl 0 kts
Wed, Jun 6, 2012 KSMO KSMO 10:20 10:42 0.37 hrs 0.00 hrs 0.00 nm 3.04 gal 8.21 gal/hr 0.00 gal/nm 0 msl 0 kts
Tue, Jun 5, 2012     08:33 08:34 0.01 hrs 0.00 hrs 0.00 nm 0.00 gal 0.00 gal/hr 0.00 gal/nm 0 msl 0 kts
Mon, Jun 4, 2012     19:53 19:54 0.01 hrs 0.00 hrs 0.00 nm 0.00 gal 0.00 gal/hr 0.00 gal/nm 0 msl 0 kts
Fri, Jun 1, 2012 KSMO KSMO 14:36 14:46 0.16 hrs 0.00 hrs 0.00 nm 1.21 gal 7.50 gal/hr 0.00 gal/nm 0 msl 0 kts
Fri, Jun 1, 2012 KSMO KSMO 14:05 14:24 0.31 hrs 0.00 hrs 0.00 nm 1.90 gal 6.07 gal/hr 0.00 gal/nm 0 msl 0 kts
Fri, Jun 1, 2012 KSMO KSMO 10:32 10:49 0.28 hrs 0.00 hrs 0.00 nm 2.37 gal 8.51 gal/hr 0.00 gal/nm 0 msl 0 kts
          7.24 hrs 1.01 hrs 146.90 nm 68.30 gal